Time;durP1;ratioP1;P1;durP2;ratioP2;P2;SDS_P1;SDS_P2;PMS_P1;PMS_P2;Temp;Humidity;BMP_temperature;BMP_pressure;BME280_temperature;BME280_humidity;BME280_pressure;Samples;Min_cycle;Max_cycle;Signal;HPM_P1;HPM_P2
2024/01/16 00:00:14;;;;;;;4.13;0.65;;;;;;;;;;5029935;28;20071;-62
2024/01/16 00:02:41;;;;;;;1.15;0.60;;;;;;;;;;4984901;28;20067;-62
2024/01/16 00:05:09;;;;;;;2.75;0.88;;;;;;;;;;4966309;28;20066;-62
2024/01/16 00:07:38;;;;;;;1.45;0.73;;;;;;;;;;4952057;28;20501;-61
2024/01/16 00:10:08;;;;;;;2.63;0.52;;;;;;;;;;4968020;28;20046;-62
2024/01/16 00:12:36;;;;;;;2.92;0.85;;;;;;;;;;4944416;28;20054;-61
2024/01/16 00:15:02;;;;;;;4.88;0.80;;;;;;;;;;4941452;28;20047;-63
2024/01/16 00:17:29;;;;;;;1.95;0.98;;;;;;;;;;4954646;28;20050;-61
2024/01/16 00:20:00;;;;;;;2.10;0.70;;;;;;;;;;4953534;28;20059;-62
2024/01/16 00:22:27;;;;;;;4.60;1.08;;;;;;;;;;4938320;28;20058;-61
2024/01/16 00:24:53;;;;;;;7.00;1.00;;;;;;;;;;4949893;28;20053;-61
2024/01/16 00:27:21;;;;;;;2.25;0.95;;;;;;;;;;4952969;28;20069;-61
2024/01/16 00:29:49;;;;;;;2.00;0.57;;;;;;;;;;4972317;28;20051;-60
2024/01/16 00:32:18;;;;;;;0.90;0.50;;;;;;;;;;4943191;28;20058;-61
2024/01/16 00:34:45;;;;;;;;;;;;;;;;;;4957409;28;20055;-61
2024/01/16 00:37:11;;;;;;;1.10;0.25;;;;;;;;;;4951174;28;20221;-62
2024/01/16 00:39:38;;;;;;;2.25;0.57;;;;;;;;;;4943679;28;20055;-62
2024/01/16 00:42:05;;;;;;;1.88;0.60;;;;;;;;;;4942832;28;20054;-62
2024/01/16 00:44:32;;;;;;;3.00;0.95;;;;;;;;;;4956704;28;20046;-62
2024/01/16 00:47:01;;;;;;;1.65;0.57;;;;;;;;;;4954294;28;20063;-62
2024/01/16 00:49:30;;;;;;;1.00;0.50;;;;;;;;;;4954756;28;20100;-63
2024/01/16 00:51:57;;;;;;;2.42;0.60;;;;;;;;;;4979489;28;20428;-61
2024/01/16 00:54:24;;;;;;;1.45;0.60;;;;;;;;;;4953081;28;20130;-61
2024/01/16 00:56:55;;;;;;;5.15;0.82;;;;;;;;;;4960178;28;20042;-61
2024/01/16 00:59:22;;;;;;;5.90;1.10;;;;;;;;;;4948939;28;21552;-62
2024/01/16 01:01:48;;;;;;;2.30;1.17;;;;;;;;;;4943259;28;20159;-61
2024/01/16 01:04:16;;;;;;;3.08;0.45;;;;;;;;;;4956424;28;20108;-61
2024/01/16 01:06:43;;;;;;;2.88;1.08;;;;;;;;;;4947756;28;20074;-61
2024/01/16 01:09:11;;;;;;;7.22;0.70;;;;;;;;;;4952523;28;20059;-61
2024/01/16 01:11:38;;;;;;;1.15;0.70;;;;;;;;;;4943394;28;20089;-61
2024/01/16 01:14:05;;;;;;;1.38;0.85;;;;;;;;;;4951636;28;20047;-61
2024/01/16 01:16:31;;;;;;;4.78;0.68;;;;;;;;;;4946477;28;20055;-61
2024/01/16 01:18:58;;;;;;;1.55;0.50;;;;;;;;;;4971066;28;20054;-61
2024/01/16 01:21:27;;;;;;;10.38;0.85;;;;;;;;;;4947436;28;20053;-62
2024/01/16 01:23:53;;;;;;;1.55;0.68;;;;;;;;;;4942910;28;20043;-61
2024/01/16 01:26:20;;;;;;;3.83;0.80;;;;;;;;;;4954722;28;20047;-61
2024/01/16 01:28:49;;;;;;;1.67;0.77;;;;;;;;;;4953349;28;20079;-61
2024/01/16 01:31:15;;;;;;;1.35;0.60;;;;;;;;;;4953479;28;20051;-60
2024/01/16 01:33:42;;;;;;;3.53;0.77;;;;;;;;;;4943163;28;20127;-61
2024/01/16 01:36:09;;;;;;;7.32;0.93;;;;;;;;;;4953699;28;20113;-61
2024/01/16 01:38:40;;;;;;;5.82;0.88;;;;;;;;;;4955031;28;20158;-60
2024/01/16 01:41:06;;;;;;;3.83;0.85;;;;;;;;;;4955519;28;20414;-61
2024/01/16 01:43:33;;;;;;;1.20;0.55;;;;;;;;;;4940259;28;20149;-60
2024/01/16 01:46:19;;;;;;;3.67;0.85;;;;;;;;;;4957431;28;20129;-62
2024/01/16 01:48:50;;;;;;;5.07;0.68;;;;;;;;;;4956636;28;20058;-61
2024/01/16 01:51:19;;;;;;;3.45;0.70;;;;;;;;;;4954554;28;20063;-62
2024/01/16 01:53:50;;;;;;;2.35;0.70;;;;;;;;;;4922640;28;20103;-62
2024/01/16 01:56:19;;;;;;;2.03;0.68;;;;;;;;;;4952266;28;20054;-61
2024/01/16 01:58:53;;;;;;;2.97;0.77;;;;;;;;;;4954809;28;20395;-61
2024/01/16 02:01:23;;;;;;;3.88;1.30;;;;;;;;;;4954684;28;20296;-61
2024/01/16 02:03:51;;;;;;;5.85;1.08;;;;;;;;;;4948654;28;20066;-61
2024/01/16 02:06:18;;;;;;;1.65;0.68;;;;;;;;;;4951897;28;20679;-61
2024/01/16 02:08:45;;;;;;;3.53;0.60;;;;;;;;;;4955968;28;20080;-61
2024/01/16 02:11:14;;;;;;;1.40;0.90;;;;;;;;;;4954446;28;20054;-61
2024/01/16 02:13:41;;;;;;;2.45;1.13;;;;;;;;;;4913611;28;20054;-60
2024/01/16 02:16:19;;;;;;;3.40;0.82;;;;;;;;;;4948079;28;20061;-61
2024/01/16 02:18:45;;;;;;;2.42;1.10;;;;;;;;;;4955298;28;20082;-63
2024/01/16 02:21:19;;;;;;;3.40;0.85;;;;;;;;;;4951584;28;20062;-61
2024/01/16 02:23:47;;;;;;;3.58;1.20;;;;;;;;;;4949928;28;20146;-62
2024/01/16 02:26:15;;;;;;;1.52;0.77;;;;;;;;;;4956997;28;20062;-61
2024/01/16 02:28:42;;;;;;;2.67;1.25;;;;;;;;;;4953138;28;20082;-62
2024/01/16 02:31:09;;;;;;;2.97;0.90;;;;;;;;;;4954450;28;20112;-62
2024/01/16 02:33:38;;;;;;;6.30;1.20;;;;;;;;;;4937928;28;20062;-62
2024/01/16 02:36:05;;;;;;;3.38;0.98;;;;;;;;;;4958165;28;20038;-61
2024/01/16 02:38:34;;;;;;;3.35;1.20;;;;;;;;;;4979641;28;20590;-62
2024/01/16 02:41:02;;;;;;;3.00;1.50;;;;;;;;;;4954101;28;20058;-62
2024/01/16 02:43:30;;;;;;;3.60;1.20;;;;;;;;;;4946459;28;20304;-62
2024/01/16 02:45:57;;;;;;;2.10;0.98;;;;;;;;;;4950970;28;20055;-61
2024/01/16 02:48:24;;;;;;;5.65;1.20;;;;;;;;;;4944897;28;20061;-61
2024/01/16 02:50:51;;;;;;;5.45;1.60;;;;;;;;;;4952868;28;20065;-62
2024/01/16 02:53:18;;;;;;;3.58;1.10;;;;;;;;;;4942330;28;20136;-62
2024/01/16 02:55:44;;;;;;;3.40;0.98;;;;;;;;;;4949509;28;20055;-61
2024/01/16 02:58:12;;;;;;;2.17;1.00;;;;;;;;;;4952820;28;20050;-62
2024/01/16 03:00:39;;;;;;;6.90;1.45;;;;;;;;;;4949472;28;20074;-62
2024/01/16 03:03:08;;;;;;;4.30;1.10;;;;;;;;;;4967302;28;20043;-62
2024/01/16 03:05:34;;;;;;;3.65;1.20;;;;;;;;;;4926647;28;20046;-62
2024/01/16 03:08:01;;;;;;;2.05;1.15;;;;;;;;;;4956795;28;20138;-63
2024/01/16 03:10:30;;;;;;;3.88;1.08;;;;;;;;;;4953789;28;20055;-62
2024/01/16 03:12:57;;;;;;;4.55;1.00;;;;;;;;;;4949247;28;20051;-62
2024/01/16 03:15:25;;;;;;;3.33;1.10;;;;;;;;;;4940706;28;20134;-62
2024/01/16 03:17:52;;;;;;;;;;;;;;;;;;4952238;28;20051;-62
2024/01/16 03:20:19;;;;;;;2.47;1.10;;;;;;;;;;4949878;28;19975;-62
2024/01/16 03:22:46;;;;;;;3.83;1.17;;;;;;;;;;4955589;28;20054;-61
2024/01/16 03:25:13;;;;;;;3.63;1.25;;;;;;;;;;4949662;28;20069;-61
2024/01/16 03:27:42;;;;;;;2.72;1.20;;;;;;;;;;4951693;28;20054;-61
2024/01/16 03:30:09;;;;;;;2.25;1.10;;;;;;;;;;4949570;28;20058;-62
2024/01/16 03:32:38;;;;;;;2.28;1.08;;;;;;;;;;4953919;28;20161;-61
2024/01/16 03:35:05;;;;;;;4.47;1.10;;;;;;;;;;4948862;28;20054;-62
2024/01/16 03:37:32;;;;;;;3.67;1.08;;;;;;;;;;4954900;28;20066;-61
2024/01/16 03:39:59;;;;;;;2.05;1.05;;;;;;;;;;4952471;28;20069;-62
2024/01/16 03:42:26;;;;;;;1.98;0.85;;;;;;;;;;4953005;28;20153;-62
2024/01/16 03:44:52;;;;;;;1.58;1.00;;;;;;;;;;4940760;28;20055;-61
2024/01/16 03:47:20;;;;;;;2.20;1.00;;;;;;;;;;4952369;28;20098;-62
2024/01/16 03:49:48;;;;;;;6.30;1.00;;;;;;;;;;4956015;28;20047;-61
2024/01/16 03:52:15;;;;;;;1.42;0.90;;;;;;;;;;4950049;28;20407;-62
2024/01/16 03:54:42;;;;;;;3.70;1.02;;;;;;;;;;4910010;28;20042;-62
2024/01/16 03:57:08;;;;;;;3.25;1.00;;;;;;;;;;4950716;28;20050;-62
2024/01/16 03:59:38;;;;;;;1.73;0.88;;;;;;;;;;4954529;28;20046;-62
2024/01/16 04:02:05;;;;;;;2.63;0.93;;;;;;;;;;4998249;28;20056;-62
2024/01/16 04:04:31;;;;;;;1.73;0.75;;;;;;;;;;5025539;28;20049;-62
2024/01/16 04:06:59;;;;;;;3.55;0.95;;;;;;;;;;5028154;28;20060;-61
2024/01/16 04:09:26;;;;;;;1.23;0.70;;;;;;;;;;5037265;28;20066;-61
2024/01/16 04:11:58;;;;;;;2.60;1.10;;;;;;;;;;5033030;28;20193;-62
2024/01/16 04:14:25;;;;;;;4.13;0.90;;;;;;;;;;5034484;28;20052;-62
2024/01/16 04:16:52;;;;;;;2.47;0.70;;;;;;;;;;5037716;28;20061;-62
2024/01/16 04:19:18;;;;;;;3.85;0.98;;;;;;;;;;5040776;28;20107;-62
2024/01/16 04:21:46;;;;;;;1.67;0.73;;;;;;;;;;5038825;28;20475;-61
2024/01/16 04:24:14;;;;;;;0.73;0.60;;;;;;;;;;5020483;28;20052;-61
2024/01/16 04:26:41;;;;;;;2.45;0.68;;;;;;;;;;5037890;28;20053;-61
2024/01/16 04:29:08;;;;;;;1.73;0.65;;;;;;;;;;5035737;28;20053;-62
2024/01/16 04:31:40;;;;;;;2.83;0.80;;;;;;;;;;5037864;28;21528;-62
2024/01/16 04:34:09;;;;;;;2.83;0.70;;;;;;;;;;5027316;28;20056;-62
2024/01/16 04:36:36;;;;;;;2.05;0.73;;;;;;;;;;5037520;28;20171;-62
2024/01/16 04:39:04;;;;;;;2.15;0.65;;;;;;;;;;5035283;28;20056;-62
2024/01/16 04:41:34;;;;;;;1.55;0.80;;;;;;;;;;5037157;28;20040;-62
2024/01/16 04:44:03;;;;;;;4.22;1.20;;;;;;;;;;5014082;28;20056;-61
2024/01/16 04:46:32;;;;;;;4.75;0.98;;;;;;;;;;5018138;28;20053;-61
2024/01/16 04:48:58;;;;;;;3.25;0.80;;;;;;;;;;5035762;28;20056;-62
2024/01/16 04:51:25;;;;;;;3.85;1.05;;;;;;;;;;5037293;28;20045;-61
2024/01/16 04:53:52;;;;;;;3.85;0.85;;;;;;;;;;5021305;28;20052;-61
2024/01/16 04:56:19;;;;;;;1.85;0.93;;;;;;;;;;5031964;28;20049;-62
2024/01/16 04:58:47;;;;;;;2.33;0.80;;;;;;;;;;5036512;28;20211;-62
2024/01/16 05:01:14;;;;;;;5.57;0.73;;;;;;;;;;5027057;28;20058;-62
2024/01/16 05:03:42;;;;;;;2.28;0.70;;;;;;;;;;4930203;28;20070;-62
2024/01/16 05:06:21;;;;;;;3.42;1.25;;;;;;;;;;4951251;28;20148;-62
2024/01/16 05:08:48;;;;;;;2.83;1.08;;;;;;;;;;4975159;28;20052;-62
2024/01/16 05:11:15;;;;;;;3.45;1.38;;;;;;;;;;4958508;28;20162;-61
2024/01/16 05:13:42;;;;;;;2.78;1.00;;;;;;;;;;4953957;28;20166;-61
2024/01/16 05:16:11;;;;;;;0.70;0.60;;;;;;;;;;4952866;28;20050;-62
2024/01/16 05:18:38;;;;;;;6.28;1.05;;;;;;;;;;4959963;28;20058;-62
2024/01/16 05:21:06;;;;;;;4.32;1.27;;;;;;;;;;4976238;28;20047;-62
2024/01/16 05:23:33;;;;;;;2.45;0.77;;;;;;;;;;4955997;28;20551;-62
2024/01/16 05:26:00;;;;;;;1.15;0.60;;;;;;;;;;4951287;28;20050;-62
2024/01/16 05:28:27;;;;;;;3.92;1.15;;;;;;;;;;4958615;28;20043;-61
2024/01/16 05:30:56;;;;;;;2.53;0.60;;;;;;;;;;4957018;28;20046;-62
2024/01/16 05:33:24;;;;;;;1.67;0.60;;;;;;;;;;4957745;28;20047;-61
2024/01/16 05:35:51;;;;;;;2.35;1.02;;;;;;;;;;4921767;28;20168;-62
2024/01/16 05:38:17;;;;;;;1.85;0.52;;;;;;;;;;4953286;28;20145;-62
2024/01/16 05:40:44;;;;;;;2.97;0.50;;;;;;;;;;4957003;28;20460;-62
2024/01/16 05:43:11;;;;;;;3.00;0.70;;;;;;;;;;4958490;28;20054;-62
2024/01/16 05:45:37;;;;;;;3.88;0.80;;;;;;;;;;4935894;28;20058;-61
2024/01/16 05:48:06;;;;;;;5.65;1.05;;;;;;;;;;4974225;28;20046;-62
2024/01/16 05:50:35;;;;;;;3.85;0.90;;;;;;;;;;4959515;28;20088;-61
2024/01/16 05:53:02;;;;;;;4.20;0.80;;;;;;;;;;4949690;28;20046;-61
2024/01/16 05:55:28;;;;;;;4.45;1.15;;;;;;;;;;4963936;28;20050;-62
2024/01/16 05:57:55;;;;;;;3.85;0.77;;;;;;;;;;4972996;28;20046;-62
2024/01/16 06:00:24;;;;;;;0.93;0.55;;;;;;;;;;4955362;28;20050;-61
2024/01/16 06:02:50;;;;;;;;;;;;;;;;;;4954764;28;20050;-61
2024/01/16 06:05:19;;;;;;;8.63;2.55;;;;;;;;;;4946388;28;19933;-61
2024/01/16 06:07:50;;;;;;;2.85;1.10;;;;;;;;;;4952517;28;21386;-61
2024/01/16 06:10:19;;;;;;;1.92;0.68;;;;;;;;;;4943826;28;20651;-62
2024/01/16 06:12:46;;;;;;;1.35;0.52;;;;;;;;;;4948638;28;20179;-62
2024/01/16 06:15:13;;;;;;;2.05;0.70;;;;;;;;;;4914662;28;20082;-62
2024/01/16 06:17:40;;;;;;;2.78;0.70;;;;;;;;;;4945371;28;20572;-62
2024/01/16 06:20:07;;;;;;;0.73;0.40;;;;;;;;;;4946294;28;20051;-62
2024/01/16 06:22:34;;;;;;;2.13;0.68;;;;;;;;;;4945290;28;20051;-61
2024/01/16 06:25:04;;;;;;;3.85;0.80;;;;;;;;;;4940477;28;20286;-62
2024/01/16 06:27:31;;;;;;;2.70;0.75;;;;;;;;;;4955101;28;20046;-62
2024/01/16 06:29:58;;;;;;;3.92;1.48;;;;;;;;;;4949108;28;20047;-62
2024/01/16 06:32:25;;;;;;;4.18;1.30;;;;;;;;;;4953680;28;20067;-62
2024/01/16 06:34:51;;;;;;;6.03;1.20;;;;;;;;;;4961929;28;20054;-62
2024/01/16 06:37:18;;;;;;;4.65;1.00;;;;;;;;;;4955348;28;20156;-62
2024/01/16 06:39:45;;;;;;;3.47;0.80;;;;;;;;;;4956423;28;20054;-61
2024/01/16 06:42:13;;;;;;;5.53;0.77;;;;;;;;;;4944787;28;20059;-61
2024/01/16 06:44:40;;;;;;;1.80;0.70;;;;;;;;;;4940808;28;20055;-61
2024/01/16 06:47:07;;;;;;;4.40;1.10;;;;;;;;;;4954550;28;20107;-62
2024/01/16 06:49:34;;;;;;;1.92;0.60;;;;;;;;;;4951149;28;20057;-61
2024/01/16 06:52:01;;;;;;;3.80;1.00;;;;;;;;;;4950159;28;20050;-63
2024/01/16 06:54:28;;;;;;;1.88;1.02;;;;;;;;;;4946683;28;20166;-62
2024/01/16 06:56:54;;;;;;;2.22;0.95;;;;;;;;;;4951967;28;20074;-62
2024/01/16 06:59:22;;;;;;;3.75;1.02;;;;;;;;;;4946391;28;20521;-62
2024/01/16 07:01:49;;;;;;;6.45;2.17;;;;;;;;;;4952098;28;20051;-61
2024/01/16 07:04:16;;;;;;;26.55;7.00;;;;;;;;;;4944213;28;20059;-62
2024/01/16 07:06:45;;;;;;;30.42;8.43;;;;;;;;;;4951837;28;20059;-62
2024/01/16 07:09:12;;;;;;;11.23;3.10;;;;;;;;;;4947836;28;20112;-63
2024/01/16 07:11:42;;;;;;;4.97;1.40;;;;;;;;;;4955675;28;20065;-62
2024/01/16 07:14:10;;;;;;;3.22;1.40;;;;;;;;;;4934624;28;20059;-62
2024/01/16 07:16:38;;;;;;;4.18;1.52;;;;;;;;;;4950304;28;20067;-61
2024/01/16 07:19:05;;;;;;;9.57;2.17;;;;;;;;;;4955336;28;20062;-61
2024/01/16 07:21:32;;;;;;;6.90;1.70;;;;;;;;;;4955485;28;20069;-62
2024/01/16 07:23:58;;;;;;;2.75;1.38;;;;;;;;;;4946562;28;20077;-62
2024/01/16 07:26:25;;;;;;;3.55;1.08;;;;;;;;;;4957348;28;20460;-62
2024/01/16 07:28:52;;;;;;;5.43;1.40;;;;;;;;;;4956832;28;20088;-61
2024/01/16 07:31:19;;;;;;;3.75;1.63;;;;;;;;;;4956247;28;20054;-62
2024/01/16 07:33:47;;;;;;;6.03;1.83;;;;;;;;;;4952545;28;20070;-62
2024/01/16 07:36:16;;;;;;;6.57;1.70;;;;;;;;;;4951758;28;20059;-62
2024/01/16 07:38:43;;;;;;;6.47;1.83;;;;;;;;;;4955430;28;20055;-61
2024/01/16 07:41:10;;;;;;;11.23;3.15;;;;;;;;;;4955912;28;20054;-61
2024/01/16 07:43:37;;;;;;;10.77;3.20;;;;;;;;;;4956706;28;20062;-61
2024/01/16 07:46:04;;;;;;;10.60;2.60;;;;;;;;;;4942473;28;20149;-62
2024/01/16 07:48:30;;;;;;;7.55;2.22;;;;;;;;;;4956438;28;20073;-62
2024/01/16 07:51:00;;;;;;;4.60;1.67;;;;;;;;;;4955584;28;20051;-61
2024/01/16 07:53:28;;;;;;;4.95;2.03;;;;;;;;;;4954093;28;20054;-61
2024/01/16 07:56:00;;;;;;;5.32;2.05;;;;;;;;;;4932406;28;20626;-61
2024/01/16 07:58:28;;;;;;;3.97;1.70;;;;;;;;;;4967689;28;20066;-61
2024/01/16 08:00:55;;;;;;;4.88;1.95;;;;;;;;;;4955569;28;20078;-61
2024/01/16 08:03:21;;;;;;;6.95;2.20;;;;;;;;;;4956171;28;20089;-61
2024/01/16 08:05:54;;;;;;;5.15;2.10;;;;;;;;;;4950500;28;20591;-61
2024/01/16 08:08:23;;;;;;;5.43;2.20;;;;;;;;;;4954923;28;20109;-64
2024/01/16 08:10:51;;;;;;;16.75;2.65;;;;;;;;;;4957213;28;20058;-63
2024/01/16 08:13:18;;;;;;;;;;;;;;;;;;4957622;28;20059;-63
2024/01/16 08:15:45;;;;;;;3.92;1.92;;;;;;;;;;4991240;28;19932;-63
2024/01/16 08:18:12;;;;;;;6.78;2.00;;;;;;;;;;5006008;28;20390;-62
2024/01/16 08:20:38;;;;;;;6.20;2.67;;;;;;;;;;4959830;28;20210;-63
2024/01/16 08:23:05;;;;;;;8.77;2.25;;;;;;;;;;4955927;28;20070;-63
2024/01/16 08:25:34;;;;;;;5.25;2.13;;;;;;;;;;4932635;28;20152;-63
2024/01/16 08:28:01;;;;;;;3.85;1.75;;;;;;;;;;4950258;28;20069;-64
2024/01/16 08:30:28;;;;;;;7.10;2.20;;;;;;;;;;4969880;28;20163;-63
2024/01/16 08:32:54;;;;;;;6.20;1.98;;;;;;;;;;4955623;28;20058;-63
2024/01/16 08:35:21;;;;;;;8.75;2.30;;;;;;;;;;4933610;28;20386;-62
2024/01/16 08:37:49;;;;;;;2.75;1.45;;;;;;;;;;4955545;28;20045;-62
2024/01/16 08:40:18;;;;;;;5.20;2.03;;;;;;;;;;4951735;28;20133;-63
2024/01/16 08:42:51;;;;;;;7.78;2.50;;;;;;;;;;4954089;28;20050;-62
2024/01/16 08:45:19;;;;;;;6.50;1.95;;;;;;;;;;4945788;28;20159;-63
2024/01/16 08:47:46;;;;;;;;;;;;;;;;;;4981193;28;20055;-63
2024/01/16 08:50:15;;;;;;;6.30;1.80;;;;;;;;;;4952633;28;20395;-63
2024/01/16 08:52:42;;;;;;;5.50;1.65;;;;;;;;;;4957125;28;20047;-63
2024/01/16 08:55:10;;;;;;;8.02;2.20;;;;;;;;;;4941724;28;20101;-63
2024/01/16 08:57:39;;;;;;;9.10;1.80;;;;;;;;;;4956419;28;20062;-63
2024/01/16 09:00:09;;;;;;;4.20;1.88;;;;;;;;;;4950993;28;20330;-63
2024/01/16 09:02:39;;;;;;;9.25;2.25;;;;;;;;;;4969219;28;20054;-63
2024/01/16 09:05:13;;;;;;;6.90;2.05;;;;;;;;;;4942132;28;20159;-64
2024/01/16 09:07:39;;;;;;;4.40;1.63;;;;;;;;;;4953831;28;20077;-63
2024/01/16 09:10:07;;;;;;;7.40;2.15;;;;;;;;;;4949950;28;20038;-63
2024/01/16 09:12:35;;;;;;;5.28;1.85;;;;;;;;;;4958845;28;20050;-63
2024/01/16 09:15:02;;;;;;;12.60;3.88;;;;;;;;;;4937637;28;20058;-64
2024/01/16 09:17:31;;;;;;;3.97;2.13;;;;;;;;;;4958265;28;20179;-63
2024/01/16 09:19:59;;;;;;;4.93;1.48;;;;;;;;;;4970247;28;20053;-63
2024/01/16 09:22:28;;;;;;;;;;;;;;;;;;4957039;28;20042;-63
2024/01/16 09:24:54;;;;;;;6.18;1.80;;;;;;;;;;4944710;28;19991;-63
2024/01/16 09:27:21;;;;;;;8.63;1.60;;;;;;;;;;4957272;28;20078;-62
2024/01/16 09:29:51;;;;;;;4.97;1.60;;;;;;;;;;4975351;28;20346;-63
2024/01/16 09:32:18;;;;;;;4.65;2.00;;;;;;;;;;4972173;28;20675;-64
2024/01/16 09:34:47;;;;;;;5.28;1.65;;;;;;;;;;4946040;28;20087;-63
2024/01/16 09:37:14;;;;;;;8.77;1.80;;;;;;;;;;4957429;28;20058;-63
2024/01/16 09:39:41;;;;;;;3.25;1.30;;;;;;;;;;4955405;28;20471;-63
2024/01/16 09:42:07;;;;;;;8.13;2.25;;;;;;;;;;4968864;28;20172;-63
2024/01/16 09:44:35;;;;;;;7.43;1.83;;;;;;;;;;4954147;28;20121;-62
2024/01/16 09:47:07;;;;;;;4.45;1.98;;;;;;;;;;4955351;28;20055;-63
2024/01/16 09:49:34;;;;;;;6.25;1.90;;;;;;;;;;4975513;28;20057;-63
2024/01/16 09:52:03;;;;;;;4.97;1.98;;;;;;;;;;4951636;28;20121;-64
2024/01/16 09:54:30;;;;;;;5.68;1.70;;;;;;;;;;4932337;28;20121;-63
2024/01/16 09:56:59;;;;;;;8.25;2.17;;;;;;;;;;4970257;28;20059;-63
2024/01/16 09:59:28;;;;;;;5.20;1.85;;;;;;;;;;4970761;28;20058;-63
2024/01/16 10:01:57;;;;;;;4.80;1.73;;;;;;;;;;4955856;28;20082;-63
2024/01/16 10:04:24;;;;;;;3.40;1.48;;;;;;;;;;4929252;28;20051;-63
2024/01/16 10:06:53;;;;;;;8.02;2.28;;;;;;;;;;4964270;28;20418;-63
2024/01/16 10:09:21;;;;;;;;;;;;;;;;;;4957031;28;20054;-62
2024/01/16 10:11:49;;;;;;;4.95;2.00;;;;;;;;;;4956678;28;20401;-64
2024/01/16 10:14:18;;;;;;;6.57;1.48;;;;;;;;;;4952168;28;20050;-64
2024/01/16 10:16:59;;;;;;;;;;;;;;;;;;4949492;28;20062;-63
2024/01/16 10:19:29;;;;;;;5.05;1.58;;;;;;;;;;4955489;28;19961;-63
2024/01/16 10:22:02;;;;;;;2.58;1.35;;;;;;;;;;4971925;28;20062;-63
2024/01/16 10:24:32;;;;;;;11.82;4.07;;;;;;;;;;4952195;28;20051;-64
2024/01/16 10:27:02;;;;;;;11.35;4.65;;;;;;;;;;4971294;28;20069;-63
2024/01/16 10:29:29;;;;;;;6.22;2.03;;;;;;;;;;4945720;28;20046;-61
2024/01/16 10:31:59;;;;;;;5.07;2.00;;;;;;;;;;4952475;28;20294;-61
2024/01/16 10:34:27;;;;;;;7.63;1.70;;;;;;;;;;4949190;28;20119;-61
2024/01/16 10:36:59;;;;;;;;;;;;;;;;;;4965405;28;20059;-61
2024/01/16 10:39:26;;;;;;;4.95;1.45;;;;;;;;;;4955100;28;19934;-61
2024/01/16 10:41:58;;;;;;;3.42;1.40;;;;;;;;;;4952777;28;20050;-61
2024/01/16 10:44:27;;;;;;;4.70;1.55;;;;;;;;;;4969934;28;20125;-61
2024/01/16 10:47:10;;;;;;;3.38;1.48;;;;;;;;;;4972775;28;20062;-61
2024/01/16 10:49:38;;;;;;;6.90;1.85;;;;;;;;;;4957699;28;20061;-61
2024/01/16 10:52:10;;;;;;;5.47;1.65;;;;;;;;;;4950766;28;20054;-61
2024/01/16 10:54:40;;;;;;;6.38;1.75;;;;;;;;;;4942849;28;20047;-62
2024/01/16 10:57:09;;;;;;;7.25;1.83;;;;;;;;;;4955415;28;20108;-61
2024/01/16 10:59:48;;;;;;;3.38;1.67;;;;;;;;;;4974185;28;20050;-61
2024/01/16 11:02:20;;;;;;;4.75;1.88;;;;;;;;;;4951576;28;20115;-61
2024/01/16 11:04:49;;;;;;;4.22;1.67;;;;;;;;;;4942132;28;20104;-61
2024/01/16 11:07:18;;;;;;;5.78;1.70;;;;;;;;;;4943054;28;20428;-61
2024/01/16 11:09:45;;;;;;;;;;;;;;;;;;4972906;28;20603;-63
2024/01/16 11:12:16;;;;;;;11.45;1.83;;;;;;;;;;4949348;28;19957;-61
2024/01/16 11:14:46;;;;;;;6.25;2.08;;;;;;;;;;4950234;28;20051;-62
2024/01/16 11:17:18;;;;;;;6.38;1.52;;;;;;;;;;4953845;28;20420;-61
2024/01/16 11:19:46;;;;;;;3.58;1.67;;;;;;;;;;4972782;28;20121;-61
2024/01/16 11:22:13;;;;;;;6.85;1.77;;;;;;;;;;4969939;28;20060;-62
2024/01/16 11:24:42;;;;;;;7.97;2.80;;;;;;;;;;4928450;28;20161;-61
2024/01/16 11:27:09;;;;;;;16.17;3.30;;;;;;;;;;4954073;28;20061;-61
2024/01/16 11:29:38;;;;;;;9.37;3.60;;;;;;;;;;4953939;28;20093;-62
2024/01/16 11:32:05;;;;;;;;;;;;;;;;;;4965494;28;20042;-62
2024/01/16 11:34:55;;;;;;;5.90;2.08;;;;;;;;;;4953312;28;19957;-62
2024/01/16 11:37:31;;;;;;;5.72;1.70;;;;;;;;;;4960656;28;20050;-61
2024/01/16 11:40:24;;;;;;;4.93;1.80;;;;;;;;;;4942158;28;20153;-62
2024/01/16 11:42:53;;;;;;;6.60;1.58;;;;;;;;;;4950815;28;20053;-63
2024/01/16 11:45:54;;;;;;;10.88;3.13;;;;;;;;;;4955372;28;20050;-61
2024/01/16 11:48:22;;;;;;;8.95;2.15;;;;;;;;;;4926075;28;20363;-62
2024/01/16 11:50:49;;;;;;;5.03;1.77;;;;;;;;;;4953319;28;20046;-61
2024/01/16 11:53:37;;;;;;;7.82;1.75;;;;;;;;;;4951256;28;20523;-61
2024/01/16 11:56:31;;;;;;;2.83;1.03;;;;;;;;;;4955169;28;20054;-63
2024/01/16 11:59:09;;;;;;;7.07;2.15;;;;;;;;;;4938657;28;20581;-63
2024/01/16 12:01:39;;;;;;;;;;;;;;;;;;4958020;28;20157;-64
2024/01/16 12:04:06;;;;;;;4.75;1.70;;;;;;;;;;4973823;28;20024;-62
2024/01/16 12:06:36;;;;;;;3.17;1.38;;;;;;;;;;4947879;28;20054;-62
2024/01/16 12:09:18;;;;;;;4.95;1.67;;;;;;;;;;4942829;28;20309;-63
2024/01/16 12:11:57;;;;;;;6.43;1.52;;;;;;;;;;4947865;28;20065;-63
2024/01/16 12:14:24;;;;;;;4.93;1.88;;;;;;;;;;4959281;28;20062;-62
2024/01/16 12:16:52;;;;;;;4.78;1.85;;;;;;;;;;4953924;28;20057;-63
2024/01/16 12:19:19;;;;;;;5.15;1.55;;;;;;;;;;4956429;28;20147;-62
2024/01/16 12:21:48;;;;;;;8.80;2.28;;;;;;;;;;4958825;28;20046;-61
2024/01/16 12:24:18;;;;;;;4.38;2.10;;;;;;;;;;4956672;28;20060;-61
2024/01/16 12:26:46;;;;;;;4.00;1.73;;;;;;;;;;4955384;28;20050;-62
2024/01/16 12:29:18;;;;;;;2.33;1.02;;;;;;;;;;4960498;28;20050;-61
2024/01/16 12:31:48;;;;;;;4.07;1.98;;;;;;;;;;4973364;28;20054;-62
2024/01/16 12:34:16;;;;;;;4.93;2.08;;;;;;;;;;4958261;28;20062;-62
2024/01/16 12:36:45;;;;;;;4.45;1.70;;;;;;;;;;4954609;28;20135;-62
2024/01/16 12:39:12;;;;;;;;;;;;;;;;;;4927501;28;20046;-62
2024/01/16 12:41:43;;;;;;;3.83;1.30;;;;;;;;;;4958615;28;19933;-62
2024/01/16 12:44:11;;;;;;;3.70;1.38;;;;;;;;;;4959636;28;20049;-62
2024/01/16 12:46:38;;;;;;;1.63;0.82;;;;;;;;;;4956457;28;20050;-62
2024/01/16 12:49:06;;;;;;;7.53;1.70;;;;;;;;;;4928997;28;20063;-62
2024/01/16 12:51:37;;;;;;;5.97;2.05;;;;;;;;;;4954105;28;20065;-62
2024/01/16 12:54:14;;;;;;;3.78;1.20;;;;;;;;;;4957587;28;20138;-63
2024/01/16 12:56:42;;;;;;;7.03;2.03;;;;;;;;;;4955774;28;20069;-62
2024/01/16 12:59:11;;;;;;;9.43;2.47;;;;;;;;;;4941367;28;20108;-62
2024/01/16 13:01:43;;;;;;;7.00;2.30;;;;;;;;;;4956995;28;20560;-61
2024/01/16 13:04:10;;;;;;;4.03;1.45;;;;;;;;;;4991219;28;20047;-61
2024/01/16 13:06:43;;;;;;;5.18;2.03;;;;;;;;;;4950501;28;20080;-62
2024/01/16 13:09:15;;;;;;;5.75;1.77;;;;;;;;;;4956878;28;20568;-62
2024/01/16 13:11:49;;;;;;;4.05;1.95;;;;;;;;;;4975858;28;20054;-62
2024/01/16 13:14:16;;;;;;;4.22;1.60;;;;;;;;;;4942783;28;20058;-61
2024/01/16 13:16:43;;;;;;;5.18;2.00;;;;;;;;;;4954169;28;20058;-62
2024/01/16 13:19:11;;;;;;;6.47;1.80;;;;;;;;;;4942830;28;20618;-61
2024/01/16 13:21:38;;;;;;;9.45;1.50;;;;;;;;;;4975839;28;20137;-62
2024/01/16 13:24:08;;;;;;;6.10;1.88;;;;;;;;;;4960310;28;20054;-61
2024/01/16 13:26:34;;;;;;;2.70;1.35;;;;;;;;;;4956931;28;20062;-61
2024/01/16 13:29:05;;;;;;;5.32;2.20;;;;;;;;;;4946582;28;20133;-62
2024/01/16 13:31:32;;;;;;;7.07;1.80;;;;;;;;;;4971042;28;20130;-61
2024/01/16 13:33:59;;;;;;;4.85;1.65;;;;;;;;;;4956420;28;20042;-61
2024/01/16 13:36:26;;;;;;;9.80;1.92;;;;;;;;;;4956431;28;20058;-61
2024/01/16 13:38:54;;;;;;;6.38;1.88;;;;;;;;;;4928428;28;20635;-61
2024/01/16 13:41:22;;;;;;;6.97;1.73;;;;;;;;;;4950273;28;20046;-61
2024/01/16 13:43:52;;;;;;;4.95;1.65;;;;;;;;;;4966495;28;20061;-61
2024/01/16 13:46:18;;;;;;;6.50;2.08;;;;;;;;;;4975217;28;20062;-61
2024/01/16 13:48:46;;;;;;;5.82;1.60;;;;;;;;;;4931995;28;20058;-63
2024/01/16 13:51:19;;;;;;;11.27;3.47;;;;;;;;;;4963642;28;20065;-60
2024/01/16 13:53:46;;;;;;;6.97;1.60;;;;;;;;;;4957337;28;21327;-61
2024/01/16 13:56:16;;;;;;;5.85;2.08;;;;;;;;;;4956774;28;20060;-62
2024/01/16 13:58:47;;;;;;;5.43;1.35;;;;;;;;;;4944007;28;20443;-61
2024/01/16 14:01:14;;;;;;;;;;;;;;;;;;4953996;28;20082;-61
2024/01/16 14:03:42;;;;;;;4.70;1.45;;;;;;;;;;4969527;28;20012;-62
2024/01/16 14:06:09;;;;;;;4.20;1.52;;;;;;;;;;4952980;28;20063;-62
2024/01/16 14:08:37;;;;;;;5.97;1.60;;;;;;;;;;4944517;28;20428;-63
2024/01/16 14:11:05;;;;;;;10.13;2.53;;;;;;;;;;4952555;28;20074;-62
2024/01/16 14:13:32;;;;;;;16.90;3.95;;;;;;;;;;4957360;28;20309;-61
2024/01/16 14:16:00;;;;;;;10.65;4.35;;;;;;;;;;4959399;28;20047;-61
2024/01/16 14:18:27;;;;;;;7.97;2.92;;;;;;;;;;4951780;28;20158;-62
2024/01/16 14:21:00;;;;;;;10.15;2.47;;;;;;;;;;4946822;28;20061;-61
2024/01/16 14:23:27;;;;;;;3.85;1.73;;;;;;;;;;4974722;28;20165;-61
2024/01/16 14:25:54;;;;;;;6.10;1.60;;;;;;;;;;4957268;28;20061;-62
2024/01/16 14:28:26;;;;;;;5.20;1.88;;;;;;;;;;4956079;28;20053;-62
2024/01/16 14:30:55;;;;;;;5.55;1.90;;;;;;;;;;4946087;28;20060;-62
2024/01/16 14:33:26;;;;;;;4.38;1.58;;;;;;;;;;4964912;28;20069;-61
2024/01/16 14:35:54;;;;;;;4.55;2.00;;;;;;;;;;4970478;28;20050;-62
2024/01/16 14:38:21;;;;;;;4.65;1.50;;;;;;;;;;4973367;28;20538;-62
2024/01/16 14:40:51;;;;;;;5.65;1.65;;;;;;;;;;4949331;28;20065;-63
2024/01/16 14:43:20;;;;;;;9.10;2.30;;;;;;;;;;4956341;28;20128;-62
2024/01/16 14:45:47;;;;;;;;;;;;;;;;;;4956691;28;20045;-62
2024/01/16 14:48:14;;;;;;;8.50;2.17;;;;;;;;;;4957195;28;19940;-61
2024/01/16 14:50:43;;;;;;;7.50;1.95;;;;;;;;;;4948049;28;20127;-61
2024/01/16 14:53:10;;;;;;;7.68;2.25;;;;;;;;;;4955751;28;20469;-62